首页
METAR-TAF:

METAR-TAF

机场 :

秋明, 俄罗斯

纬度: 57-10-06N, 经度: 065-19-00E, 海拔: 113米

当前天气观测

该预报发布于26分钟前的11:00 UTC
风速12节,风向北转东北,在东转东北之间变化
温度 19°C
湿度 52%
气压 1005 hPa
能见度10公里或以上
1500米以下无云,无积雨云

METAR: USTR 231100Z 03006MPS 360V070 CAVOK 19/09 Q1005 R03/090065 R30/090065 TEMPO 03015MPS

时间: 16:26 (11:26 UTC)

预报

该预报发布于3小时和50分钟前的07:36 UTC
预报有效从23日的 09点(UTC)到 24日的 09点(UTC)
风速10节,风向北转东北,有时为29节阵风
能见度10公里或以上
多云层高于2000英尺, 积雨云.
短暂存在
从 23日的 09点(UTC)到 23日的 21点(UTC)
小阵雨
成为
从 23日的 12点(UTC)到 23日的 14点(UTC)
风速6节,风向北转东北,有时为16节阵风
短暂存在
从 24日的 03点(UTC)到 24日的 09点(UTC)
小阵雨
成为
从 24日的 06点(UTC)到 24日的 08点(UTC)
风速10节,风向北转东北,有时为25节阵风

TAF: USTR 230736Z 2309/2409 03005G15MPS 9999 BKN020CB TEMPO 2309/2321 -SHRA BECMG 2312/2314 03003G08MPS TEMPO 2403/2409 -SHRA BECMG 2406/2408 02005G13MPS

超过4000个机场的气象观测和天气预报(METAR&TAF报告)。

可查询的气象台以黄色和红色小点在地图上表示。

将鼠标移到小点上方,可查看气象台名称。

然后点击查看天气观测和预报。

如需切换地图:点击带黑十字的绿色按钮放大地图;点击带横线的绿色按钮缩小地图;或者点击绿色箭头查看邻近地区的地图。


METAR-TAF: